createdAt,value
2019-03-25T00:00:39.502Z,4.20
2019-03-25T00:03:07.393Z,4.63
2019-03-25T00:05:35.572Z,4.87
2019-03-25T00:08:03.548Z,4.53
2019-03-25T00:10:31.431Z,4.17
2019-03-25T00:12:59.303Z,4.67
2019-03-25T00:15:27.209Z,4.23
2019-03-25T00:17:55.082Z,4.43
2019-03-25T00:20:22.997Z,4.37
2019-03-25T00:22:50.898Z,4.63
2019-03-25T00:25:18.779Z,5.30
2019-03-25T00:27:46.648Z,4.73
2019-03-25T00:30:14.661Z,4.43
2019-03-25T00:32:42.538Z,4.63
2019-03-25T00:35:10.563Z,3.70
2019-03-25T00:37:38.471Z,4.37
2019-03-25T00:40:06.463Z,4.83
2019-03-25T00:42:34.368Z,4.33
2019-03-25T00:45:02.232Z,4.27
2019-03-25T00:47:30.144Z,3.23
2019-03-25T00:49:58.010Z,3.67
2019-03-25T00:52:25.910Z,3.73
2019-03-25T00:54:53.775Z,4.23
2019-03-25T00:57:21.695Z,3.87
2019-03-25T00:59:54.574Z,3.80
2019-03-25T01:02:22.477Z,3.37
2019-03-25T01:04:50.344Z,3.90
2019-03-25T01:07:18.232Z,3.73
2019-03-25T01:09:46.141Z,3.83
2019-03-25T01:12:13.977Z,4.63
2019-03-25T01:14:41.837Z,4.50
2019-03-25T01:17:09.782Z,4.57
2019-03-25T01:19:37.662Z,4.47
2019-03-25T01:22:05.551Z,5.30
2019-03-25T01:24:33.401Z,5.47
2019-03-25T01:27:01.294Z,4.97
2019-03-25T01:29:29.177Z,4.60
2019-03-25T01:31:57.018Z,5.43
2019-03-25T01:34:24.901Z,5.50
2019-03-25T01:36:52.788Z,6.13
2019-03-25T01:39:20.664Z,5.40
2019-03-25T01:41:53.139Z,6.57
2019-03-25T01:44:21.048Z,5.23
2019-03-25T01:46:48.934Z,5.80
2019-03-25T01:49:16.820Z,5.70
2019-03-25T01:51:44.706Z,6.20
2019-03-25T01:54:12.614Z,6.70
2019-03-25T01:56:40.492Z,7.00
2019-03-25T01:59:08.413Z,6.13
2019-03-25T02:01:36.275Z,5.93
2019-03-25T02:04:04.176Z,6.83
2019-03-25T02:06:32.036Z,6.20
2019-03-25T02:08:59.923Z,6.97
2019-03-25T02:11:27.771Z,6.50
2019-03-25T02:13:55.657Z,6.50
2019-03-25T02:16:23.530Z,7.03
2019-03-25T02:18:51.476Z,6.17
2019-03-25T02:21:19.375Z,6.50
2019-03-25T02:23:47.267Z,6.73
2019-03-25T02:26:15.134Z,7.33
2019-03-25T02:28:43.061Z,6.63
2019-03-25T02:31:10.924Z,6.80
2019-03-25T02:33:38.796Z,6.93
2019-03-25T02:36:06.700Z,6.40
2019-03-25T02:38:34.642Z,7.20
2019-03-25T02:41:02.646Z,6.60
2019-03-25T02:43:30.535Z,6.50
2019-03-25T02:45:58.427Z,6.67
2019-03-25T02:48:26.314Z,6.50
2019-03-25T02:50:54.208Z,6.50
2019-03-25T02:53:22.124Z,6.53
2019-03-25T02:55:50.007Z,5.97
2019-03-25T02:58:17.936Z,6.27
2019-03-25T03:00:45.783Z,7.20
2019-03-25T03:03:13.714Z,6.87
2019-03-25T03:05:41.593Z,6.87
2019-03-25T03:08:09.460Z,6.67
2019-03-25T03:10:37.355Z,6.53
2019-03-25T03:13:05.253Z,7.10
2019-03-25T03:15:33.165Z,7.33
2019-03-25T03:18:01.010Z,6.87
2019-03-25T03:20:28.906Z,6.70
2019-03-25T03:22:56.785Z,7.20
2019-03-25T03:25:24.683Z,7.03
2019-03-25T03:27:53.589Z,6.70
2019-03-25T03:30:21.486Z,6.60
2019-03-25T03:32:49.349Z,7.07
2019-03-25T03:35:17.265Z,7.13
2019-03-25T03:37:45.149Z,6.97
2019-03-25T03:40:13.066Z,6.50
2019-03-25T03:42:40.917Z,6.93
2019-03-25T03:45:08.811Z,6.27
2019-03-25T03:47:36.719Z,6.37
2019-03-25T03:50:04.634Z,6.40
2019-03-25T03:52:33.320Z,6.00
2019-03-25T03:55:01.239Z,6.33
2019-03-25T03:57:29.445Z,6.63
2019-03-25T03:59:57.358Z,6.73
2019-03-25T04:02:25.244Z,7.13
2019-03-25T04:04:53.141Z,7.17
2019-03-25T04:07:21.061Z,8.37
2019-03-25T04:09:50.193Z,10.47
2019-03-25T04:12:18.071Z,8.10
2019-03-25T04:14:45.973Z,8.43
2019-03-25T04:17:13.841Z,6.57
2019-03-25T04:19:41.723Z,7.00
2019-03-25T04:22:09.631Z,5.97
2019-03-25T04:24:37.536Z,6.20
2019-03-25T04:27:05.411Z,5.63
2019-03-25T04:29:33.283Z,5.37
2019-03-25T04:32:01.135Z,5.33
2019-03-25T04:34:28.994Z,5.40
2019-03-25T04:36:56.879Z,5.67
2019-03-25T04:39:24.737Z,5.00
2019-03-25T04:41:52.651Z,5.33
2019-03-25T04:44:20.505Z,7.30
2019-03-25T04:46:48.400Z,6.27
2019-03-25T04:49:16.263Z,5.33
2019-03-25T04:51:45.016Z,4.60
2019-03-25T04:54:13.015Z,4.50
2019-03-25T04:56:40.937Z,3.90
2019-03-25T04:59:08.814Z,3.80
2019-03-25T05:01:36.729Z,3.70
2019-03-25T05:04:04.643Z,4.23
2019-03-25T05:06:32.521Z,3.53
2019-03-25T05:09:00.661Z,3.60
2019-03-25T05:11:30.763Z,3.80
2019-03-25T05:13:58.238Z,3.00
2019-03-25T05:16:26.191Z,3.73
2019-03-25T05:18:54.067Z,3.20
2019-03-25T05:21:21.977Z,3.77
2019-03-25T05:23:49.874Z,4.10
2019-03-25T05:26:17.765Z,4.00
2019-03-25T05:28:45.642Z,3.87
2019-03-25T05:31:13.525Z,3.03
2019-03-25T05:33:41.465Z,4.37
2019-03-25T05:36:09.366Z,3.93
2019-03-25T05:38:37.228Z,3.90
2019-03-25T05:41:05.116Z,3.97
2019-03-25T05:43:33.028Z,3.53
2019-03-25T05:46:00.907Z,3.80
2019-03-25T05:48:28.790Z,3.40
2019-03-25T05:50:56.701Z,3.87
2019-03-25T05:53:24.642Z,4.23
2019-03-25T05:55:59.335Z,4.70
2019-03-25T05:58:27.388Z,3.80
2019-03-25T06:00:55.325Z,4.27
2019-03-25T06:03:23.262Z,4.70
2019-03-25T06:05:51.361Z,4.37
2019-03-25T06:08:19.291Z,3.57
2019-03-25T06:10:47.176Z,3.27
2019-03-25T06:13:15.082Z,3.40
2019-03-25T06:15:42.990Z,3.30
2019-03-25T06:18:10.893Z,3.77
2019-03-25T06:20:38.798Z,3.50
2019-03-25T06:23:06.767Z,3.47
2019-03-25T06:25:34.625Z,4.10
2019-03-25T06:28:02.549Z,4.10
2019-03-25T06:30:30.443Z,4.53
2019-03-25T06:32:58.329Z,3.90
2019-03-25T06:35:26.474Z,4.23
2019-03-25T06:37:54.365Z,4.73
2019-03-25T06:40:22.264Z,3.97
2019-03-25T06:42:50.171Z,4.70
2019-03-25T06:45:18.054Z,3.73
2019-03-25T06:47:45.999Z,3.93
2019-03-25T06:50:13.949Z,4.30
2019-03-25T06:52:41.926Z,4.23
2019-03-25T06:55:09.787Z,4.53
2019-03-25T06:57:38.833Z,4.00
2019-03-25T07:00:09.111Z,3.60
2019-03-25T07:02:36.993Z,4.90
2019-03-25T07:05:05.885Z,3.83
2019-03-25T07:07:33.764Z,4.17
2019-03-25T07:10:01.640Z,4.57
2019-03-25T07:12:29.521Z,4.53
2019-03-25T07:14:57.405Z,4.23
2019-03-25T07:17:25.377Z,4.20
2019-03-25T07:19:53.260Z,4.17
2019-03-25T07:22:21.147Z,4.40
2019-03-25T07:24:49.038Z,4.67
2019-03-25T07:27:16.906Z,5.70
2019-03-25T07:29:44.808Z,5.00
2019-03-25T07:32:12.654Z,6.57
2019-03-25T07:34:41.358Z,7.10
2019-03-25T07:37:09.376Z,8.00
2019-03-25T07:39:37.287Z,5.37
2019-03-25T07:42:05.184Z,5.57
2019-03-25T07:44:33.098Z,5.50
2019-03-25T07:47:01.011Z,5.00
2019-03-25T07:49:28.900Z,4.77
2019-03-25T07:51:56.813Z,4.50
2019-03-25T07:54:24.791Z,5.17
2019-03-25T07:56:52.699Z,3.90
2019-03-25T07:59:20.621Z,3.77
2019-03-25T08:01:48.527Z,3.63
2019-03-25T08:04:16.447Z,4.00
2019-03-25T08:06:44.398Z,3.43
2019-03-25T08:09:12.429Z,3.73
2019-03-25T08:11:40.547Z,2.80
2019-03-25T08:14:08.623Z,2.30
2019-03-25T08:16:36.761Z,2.50
2019-03-25T08:19:04.850Z,2.40
2019-03-25T08:21:32.862Z,2.93
2019-03-25T08:24:00.940Z,2.90
2019-03-25T08:26:29.153Z,3.13
2019-03-25T08:28:57.200Z,2.70
2019-03-25T08:31:25.289Z,2.93
2019-03-25T08:33:53.149Z,3.43
2019-03-25T08:36:21.054Z,4.40
2019-03-25T08:38:48.946Z,3.17
2019-03-25T08:41:16.803Z,3.10
2019-03-25T08:43:44.829Z,3.17
2019-03-25T08:46:12.676Z,2.93
2019-03-25T08:48:40.623Z,3.37
2019-03-25T08:51:08.503Z,3.33
2019-03-25T08:53:36.484Z,3.07
2019-03-25T08:56:04.341Z,3.43
2019-03-25T08:58:32.314Z,3.37
2019-03-25T09:01:00.238Z,2.90
2019-03-25T09:03:28.135Z,3.20
2019-03-25T09:05:55.989Z,2.50
2019-03-25T09:08:23.903Z,2.50
2019-03-25T09:10:51.807Z,1.63
2019-03-25T09:13:19.747Z,2.77
2019-03-25T09:15:47.639Z,2.90
2019-03-25T09:18:15.571Z,3.00
2019-03-25T09:20:43.427Z,3.00
2019-03-25T09:23:11.297Z,3.00
2019-03-25T09:25:39.548Z,2.70
2019-03-25T09:28:07.441Z,3.60
2019-03-25T09:30:53.445Z,3.33
2019-03-25T09:33:21.424Z,3.20
2019-03-25T09:35:49.329Z,2.70
2019-03-25T09:38:17.197Z,2.80
2019-03-25T09:40:45.074Z,2.43
2019-03-25T09:43:12.952Z,3.07
2019-03-25T09:45:40.829Z,3.10
2019-03-25T09:48:08.767Z,2.73
2019-03-25T09:50:36.679Z,3.10
2019-03-25T09:53:04.561Z,3.07
2019-03-25T09:55:32.495Z,3.07
2019-03-25T09:58:00.363Z,2.40
2019-03-25T10:00:29.912Z,3.33
2019-03-25T10:02:57.804Z,2.67
2019-03-25T10:05:25.694Z,2.70
2019-03-25T10:07:53.548Z,2.53
2019-03-25T10:10:21.472Z,2.63
2019-03-25T10:12:49.326Z,2.03
2019-03-25T10:15:17.308Z,2.20
2019-03-25T10:17:45.162Z,1.67
2019-03-25T10:20:14.070Z,1.57
2019-03-25T10:22:41.960Z,1.60
2019-03-25T10:25:10.632Z,1.57
2019-03-25T10:27:38.508Z,1.77
2019-03-25T10:30:07.214Z,2.00
2019-03-25T10:32:35.366Z,2.17
2019-03-25T10:35:04.021Z,2.37
2019-03-25T10:37:32.174Z,2.50
2019-03-25T10:40:00.413Z,2.20
2019-03-25T10:42:28.602Z,2.17
2019-03-25T10:44:56.772Z,1.90
2019-03-25T10:47:24.921Z,1.83
2019-03-25T10:49:53.101Z,2.27
2019-03-25T10:52:21.311Z,2.40
2019-03-25T10:54:49.619Z,2.33
2019-03-25T10:57:17.833Z,2.30
2019-03-25T10:59:45.673Z,2.23
2019-03-25T11:02:13.827Z,2.80
2019-03-25T11:04:41.980Z,2.17
2019-03-25T11:07:10.178Z,2.90
2019-03-25T11:09:38.302Z,2.97
2019-03-25T11:12:06.479Z,3.10
2019-03-25T11:14:35.287Z,2.73
2019-03-25T11:17:03.592Z,2.73
2019-03-25T11:19:31.778Z,2.87
2019-03-25T11:21:59.952Z,1.90
2019-03-25T11:24:28.105Z,2.37
2019-03-25T11:26:56.288Z,1.80
2019-03-25T11:29:24.130Z,2.17
2019-03-25T11:31:52.309Z,2.47
2019-03-25T11:34:30.629Z,2.20
2019-03-25T11:36:58.883Z,2.17
2019-03-25T11:39:27.063Z,2.60
2019-03-25T11:41:55.299Z,2.20
2019-03-25T11:44:23.466Z,2.80
2019-03-25T11:46:51.615Z,2.63
2019-03-25T11:49:19.789Z,2.33
2019-03-25T11:51:47.930Z,2.80
2019-03-25T11:54:16.156Z,2.30
2019-03-25T11:56:44.320Z,2.57
2019-03-25T11:59:18.589Z,2.40
2019-03-25T12:01:42.471Z,3.00
2019-03-25T12:04:10.693Z,3.13
2019-03-25T12:06:38.880Z,2.57
2019-03-25T12:09:07.876Z,3.10
2019-03-25T12:11:36.071Z,2.33
2019-03-25T12:14:04.189Z,2.40
2019-03-25T12:16:40.847Z,2.00
2019-03-25T12:19:08.921Z,2.30
2019-03-25T12:21:37.055Z,2.73
2019-03-25T12:24:05.265Z,2.80
2019-03-25T12:26:33.385Z,2.93
2019-03-25T12:29:01.539Z,2.83
2019-03-25T12:31:29.737Z,3.30
2019-03-25T12:33:58.098Z,3.27
2019-03-25T12:36:26.383Z,3.93
2019-03-25T12:38:54.502Z,4.20
2019-03-25T12:41:22.650Z,3.40
2019-03-25T12:43:50.501Z,2.50
2019-03-25T12:46:19.001Z,2.37
2019-03-25T12:48:47.176Z,3.13
2019-03-25T12:51:15.328Z,2.30
2019-03-25T12:53:43.715Z,2.27
2019-03-25T12:56:11.853Z,1.80
2019-03-25T12:58:40.104Z,1.60
2019-03-25T13:01:08.253Z,2.00
2019-03-25T13:03:36.429Z,2.20
2019-03-25T13:06:04.590Z,1.73
2019-03-25T13:08:33.522Z,1.97
2019-03-25T13:11:01.776Z,1.90
2019-03-25T13:13:29.956Z,2.20
2019-03-25T13:15:58.080Z,2.43
2019-03-25T13:18:26.302Z,2.57
2019-03-25T13:20:54.103Z,2.10
2019-03-25T13:23:22.270Z,2.17
2019-03-25T13:25:50.197Z,1.97
2019-03-25T13:28:18.171Z,2.27
2019-03-25T13:30:46.026Z,2.30
2019-03-25T13:33:14.147Z,2.30
2019-03-25T13:35:42.314Z,2.80
2019-03-25T13:38:10.634Z,1.93
2019-03-25T13:40:50.918Z,2.50
2019-03-25T13:43:19.135Z,2.37
2019-03-25T13:45:47.281Z,2.77
2019-03-25T13:48:15.404Z,2.00
2019-03-25T13:50:43.613Z,2.20
2019-03-25T13:53:11.813Z,2.33
2019-03-25T13:55:40.006Z,2.50
2019-03-25T13:58:09.071Z,2.70
2019-03-25T14:00:39.181Z,3.27
2019-03-25T14:03:07.324Z,2.27
2019-03-25T14:05:35.187Z,2.80
2019-03-25T14:08:03.311Z,3.33
2019-03-25T14:10:31.502Z,3.40
2019-03-25T14:12:59.659Z,3.23
2019-03-25T14:15:27.805Z,3.00
2019-03-25T14:17:55.996Z,2.70
2019-03-25T14:20:24.168Z,2.67
2019-03-25T14:22:52.316Z,2.87
2019-03-25T14:25:20.491Z,2.63
2019-03-25T14:27:48.625Z,3.40
2019-03-25T14:30:16.887Z,3.23
2019-03-25T14:32:45.033Z,3.00
2019-03-25T14:35:13.203Z,2.70
2019-03-25T14:37:41.853Z,2.60
2019-03-25T14:40:10.045Z,2.70
2019-03-25T14:42:38.174Z,2.60
2019-03-25T14:45:07.612Z,2.63
2019-03-25T14:47:37.717Z,2.03
2019-03-25T14:50:06.405Z,2.50
2019-03-25T14:52:34.568Z,2.80
2019-03-25T14:55:02.986Z,2.83
2019-03-25T14:57:31.158Z,3.13
2019-03-25T14:59:59.394Z,3.40
2019-03-25T15:02:27.511Z,3.20
2019-03-25T15:04:55.668Z,2.87
2019-03-25T15:07:23.849Z,2.97
2019-03-25T15:09:52.058Z,3.10
2019-03-25T15:12:20.196Z,3.20
2019-03-25T15:14:48.357Z,2.93
2019-03-25T15:17:16.522Z,3.93
2019-03-25T15:19:44.750Z,3.73
2019-03-25T15:22:12.898Z,3.70
2019-03-25T15:24:41.044Z,4.10
2019-03-25T15:27:09.202Z,4.07
2019-03-25T15:29:37.392Z,4.93
2019-03-25T15:32:06.151Z,3.40
2019-03-25T15:34:34.294Z,3.00
2019-03-25T15:37:02.512Z,3.40
2019-03-25T15:39:30.324Z,3.70
2019-03-25T15:41:58.522Z,3.60
2019-03-25T15:44:26.685Z,3.10
2019-03-25T15:46:56.002Z,3.23
2019-03-25T15:49:24.433Z,4.20
2019-03-25T15:51:52.645Z,3.37
2019-03-25T15:54:20.813Z,2.90
2019-03-25T15:56:48.991Z,3.70
2019-03-25T15:59:17.159Z,3.80
2019-03-25T16:01:45.299Z,4.07
2019-03-25T16:04:13.430Z,3.60
2019-03-25T16:06:41.578Z,3.70
2019-03-25T16:09:09.719Z,3.33
2019-03-25T16:11:37.899Z,3.20
2019-03-25T16:14:05.701Z,3.13
2019-03-25T16:16:33.848Z,3.00
2019-03-25T16:19:02.049Z,3.20
2019-03-25T16:21:30.277Z,3.20
2019-03-25T16:23:58.405Z,2.87
2019-03-25T16:26:26.583Z,2.57
2019-03-25T16:28:54.837Z,2.50
2019-03-25T16:31:24.286Z,2.80
2019-03-25T16:33:52.464Z,3.07
2019-03-25T16:36:20.615Z,3.30
2019-03-25T16:38:50.458Z,4.07
2019-03-25T16:41:18.819Z,3.00
2019-03-25T16:43:46.938Z,2.70
2019-03-25T16:46:15.075Z,2.60
2019-03-25T16:48:43.184Z,2.70
2019-03-25T16:51:11.339Z,2.57
2019-03-25T16:53:39.496Z,3.63
2019-03-25T16:56:07.715Z,2.60
2019-03-25T16:58:35.866Z,2.00
2019-03-25T17:01:09.875Z,2.07
2019-03-25T17:03:34.126Z,2.60
2019-03-25T17:06:02.307Z,2.03
2019-03-25T17:08:30.440Z,2.00
2019-03-25T17:10:58.599Z,1.97
2019-03-25T17:13:26.740Z,2.30
2019-03-25T17:15:54.936Z,2.30
2019-03-25T17:18:23.161Z,1.47
2019-03-25T17:20:51.301Z,1.40
2019-03-25T17:23:19.511Z,1.57
2019-03-25T17:25:53.036Z,1.77
2019-03-25T17:28:17.724Z,1.80
2019-03-25T17:30:45.925Z,1.80
2019-03-25T17:33:14.119Z,2.03
2019-03-25T17:35:42.255Z,1.90
2019-03-25T17:38:10.449Z,1.80
2019-03-25T17:40:38.632Z,1.93
2019-03-25T17:43:06.793Z,2.43
2019-03-25T17:45:35.004Z,2.00
2019-03-25T17:48:03.190Z,2.30
2019-03-25T17:50:31.361Z,2.20
2019-03-25T17:52:59.634Z,2.87
2019-03-25T17:55:27.832Z,2.90
2019-03-25T17:57:55.977Z,3.70
2019-03-25T18:01:32.807Z,3.10
2019-03-25T18:04:01.028Z,2.80
2019-03-25T18:06:29.222Z,2.63
2019-03-25T18:08:57.841Z,3.17
2019-03-25T18:11:26.019Z,2.27
2019-03-25T18:13:54.205Z,2.40
2019-03-25T18:16:22.337Z,2.00
2019-03-25T18:18:50.925Z,1.87
2019-03-25T18:21:19.045Z,1.93
2019-03-25T18:23:47.303Z,1.93
2019-03-25T18:26:15.421Z,1.80
2019-03-25T18:28:43.655Z,1.97
2019-03-25T18:31:12.127Z,2.17
2019-03-25T18:33:40.303Z,1.97
2019-03-25T18:36:08.431Z,2.00
2019-03-25T18:38:36.608Z,1.80
2019-03-25T18:41:05.234Z,1.93
2019-03-25T18:43:33.737Z,2.20
2019-03-25T18:46:01.844Z,2.17
2019-03-25T18:48:30.026Z,2.27
2019-03-25T18:50:58.202Z,2.10
2019-03-25T18:53:26.389Z,2.80
2019-03-25T18:55:54.607Z,3.33
2019-03-25T18:58:22.736Z,2.70
2019-03-25T19:00:50.891Z,2.60
2019-03-25T19:03:19.050Z,3.03
2019-03-25T19:05:47.210Z,3.03
2019-03-25T19:08:15.363Z,2.10
2019-03-25T19:10:43.493Z,2.83
2019-03-25T19:13:11.649Z,2.80
2019-03-25T19:15:39.801Z,3.03
2019-03-25T19:18:08.773Z,3.10
2019-03-25T19:20:37.035Z,3.27
2019-03-25T19:23:05.168Z,3.63
2019-03-25T19:25:33.319Z,4.70
2019-03-25T19:28:01.494Z,3.87
2019-03-25T19:30:42.349Z,5.23
2019-03-25T19:33:10.796Z,5.17
2019-03-25T19:35:38.944Z,4.00
2019-03-25T19:38:07.078Z,3.77
2019-03-25T19:40:35.239Z,3.47
2019-03-25T19:43:03.522Z,3.60
2019-03-25T19:45:32.798Z,3.07
2019-03-25T19:48:00.981Z,3.60
2019-03-25T19:50:29.134Z,4.10
2019-03-25T19:52:57.292Z,2.87
2019-03-25T19:55:25.581Z,3.20
2019-03-25T19:57:53.684Z,3.73
2019-03-25T20:00:37.279Z,3.73
2019-03-25T20:03:05.753Z,3.80
2019-03-25T20:05:33.902Z,3.60
2019-03-25T20:08:06.757Z,3.47
2019-03-25T20:10:35.802Z,3.93
2019-03-25T20:13:06.480Z,4.00
2019-03-25T20:15:45.665Z,4.03
2019-03-25T20:18:04.821Z,4.07
2019-03-25T20:20:32.971Z,4.43
2019-03-25T20:23:01.101Z,3.63
2019-03-25T20:25:29.308Z,4.10
2019-03-25T20:27:57.593Z,3.67
2019-03-25T20:30:25.778Z,3.10
2019-03-25T20:32:53.990Z,3.23
2019-03-25T20:35:22.219Z,3.10
2019-03-25T20:37:50.342Z,3.27
2019-03-25T20:40:18.592Z,3.33
2019-03-25T20:42:46.816Z,3.27
2019-03-25T20:45:18.141Z,3.70
2019-03-25T20:47:45.003Z,4.40
2019-03-25T20:50:13.378Z,3.90
2019-03-25T20:52:41.575Z,5.00
2019-03-25T20:55:09.949Z,6.03
2019-03-25T20:57:40.702Z,5.40
2019-03-25T21:00:09.493Z,6.53
2019-03-25T21:02:44.836Z,7.07
2019-03-25T21:05:07.801Z,5.30
2019-03-25T21:07:35.898Z,4.83
2019-03-25T21:10:05.025Z,4.83
2019-03-25T21:12:33.222Z,4.63
2019-03-25T21:15:01.427Z,5.13
2019-03-25T21:17:29.718Z,4.13
2019-03-25T21:19:57.880Z,5.23
2019-03-25T21:22:26.052Z,5.73
2019-03-25T21:24:54.206Z,5.17
2019-03-25T21:27:22.277Z,6.30
2019-03-25T21:29:50.510Z,5.40
2019-03-25T21:32:18.635Z,5.47
2019-03-25T21:34:47.219Z,6.27
2019-03-25T21:37:15.435Z,4.80
2019-03-25T21:39:43.569Z,3.83
2019-03-25T21:42:11.788Z,3.93
2019-03-25T21:44:40.032Z,3.57
2019-03-25T21:47:08.123Z,3.53
2019-03-25T21:49:36.323Z,3.47
2019-03-25T21:52:05.531Z,3.60
2019-03-25T21:54:33.798Z,3.90
2019-03-25T21:57:02.029Z,3.50
2019-03-25T21:59:30.312Z,2.90
2019-03-25T22:01:58.554Z,3.83
2019-03-25T22:04:26.698Z,4.37
2019-03-25T22:06:54.892Z,4.23
2019-03-25T22:09:23.083Z,3.63
2019-03-25T22:11:51.258Z,3.33
2019-03-25T22:14:19.404Z,3.67
2019-03-25T22:16:47.539Z,3.87
2019-03-25T22:19:15.783Z,3.60
2019-03-25T22:21:45.648Z,3.77
2019-03-25T22:24:13.816Z,3.83
2019-03-25T22:26:42.002Z,3.37
2019-03-25T22:29:10.152Z,3.73
2019-03-25T22:31:38.312Z,3.13
2019-03-25T22:34:08.071Z,3.93
2019-03-25T22:36:36.218Z,3.57
2019-03-25T22:39:06.846Z,3.80
2019-03-25T22:41:35.319Z,4.00
2019-03-25T22:44:03.893Z,4.00
2019-03-25T22:46:32.035Z,3.20
2019-03-25T22:49:00.167Z,4.13
2019-03-25T22:51:28.373Z,3.00
2019-03-25T22:53:56.628Z,3.63
2019-03-25T22:56:24.807Z,3.47
2019-03-25T22:58:53.010Z,3.53
2019-03-25T23:01:21.202Z,3.23
2019-03-25T23:03:50.994Z,4.07
2019-03-25T23:06:19.155Z,3.17
2019-03-25T23:08:47.331Z,3.33
2019-03-25T23:11:15.480Z,3.47
2019-03-25T23:13:43.604Z,3.23
2019-03-25T23:16:11.763Z,3.03
2019-03-25T23:18:39.911Z,3.27
2019-03-25T23:21:08.097Z,3.97
2019-03-25T23:23:36.270Z,3.10
2019-03-25T23:26:04.437Z,2.60
2019-03-25T23:28:32.550Z,3.30
2019-03-25T23:31:00.727Z,3.10
2019-03-25T23:33:28.859Z,2.80
2019-03-25T23:35:57.012Z,3.40
2019-03-25T23:38:25.150Z,3.63
2019-03-25T23:40:53.326Z,2.67
2019-03-25T23:43:21.481Z,2.90
2019-03-25T23:45:56.757Z,3.30
2019-03-25T23:48:24.962Z,2.47
2019-03-25T23:50:53.104Z,2.60
2019-03-25T23:53:21.298Z,2.50
2019-03-25T23:55:49.464Z,2.87
2019-03-25T23:58:18.052Z,2.83
